createdAt,value
2023-03-19T00:00:31.418Z,13.44
2023-03-19T00:03:02.194Z,13.42
2023-03-19T00:05:30.408Z,13.43
2023-03-19T00:07:58.408Z,13.41
2023-03-19T00:10:26.045Z,13.42
2023-03-19T00:12:53.777Z,13.48
2023-03-19T00:15:21.737Z,13.42
2023-03-19T00:17:52.054Z,13.27
2023-03-19T00:20:22.362Z,13.15
2023-03-19T00:22:50.301Z,13.02
2023-03-19T00:25:18.047Z,13.03
2023-03-19T00:27:46.352Z,13.14
2023-03-19T00:30:15.121Z,13.15
2023-03-19T00:32:43.504Z,13.10
2023-03-19T00:35:11.807Z,12.89
2023-03-19T00:37:42.097Z,12.63
2023-03-19T00:40:11.099Z,12.58
2023-03-19T00:42:38.817Z,12.57
2023-03-19T00:45:08.394Z,12.53
2023-03-19T00:47:36.812Z,12.56
2023-03-19T00:50:05.375Z,12.54
2023-03-19T00:52:34.042Z,12.51
2023-03-19T00:55:03.495Z,12.38
2023-03-19T00:57:31.445Z,12.37
2023-03-19T00:59:59.517Z,12.49
2023-03-19T01:02:27.900Z,12.67
2023-03-19T01:04:56.791Z,12.83
2023-03-19T01:07:24.823Z,12.78
2023-03-19T01:09:52.745Z,12.77
2023-03-19T01:12:21.866Z,12.65
2023-03-19T01:14:49.612Z,12.54
2023-03-19T01:17:17.397Z,12.29
2023-03-19T01:19:47.797Z,12.03
2023-03-19T01:22:17.020Z,11.34
2023-03-19T01:24:50.542Z,10.91
2023-03-19T01:27:19.656Z,10.81
2023-03-19T01:29:51.171Z,11.03
2023-03-19T01:32:30.161Z,11.50
2023-03-19T01:35:15.217Z,11.86
2023-03-19T01:37:44.174Z,11.99
2023-03-19T01:40:14.288Z,11.91
2023-03-19T01:42:56.493Z,11.73
2023-03-19T01:45:45.456Z,11.73
2023-03-19T01:48:38.042Z,12.05
2023-03-19T01:51:12.487Z,12.28
2023-03-19T01:54:01.292Z,12.33
2023-03-19T01:56:46.680Z,12.45
2023-03-19T01:59:26.499Z,12.52
2023-03-19T02:02:18.131Z,12.62
2023-03-19T02:04:48.844Z,12.76
2023-03-19T02:07:17.877Z,12.77
2023-03-19T02:09:46.581Z,12.72
2023-03-19T02:12:15.148Z,12.73
2023-03-19T02:14:45.213Z,12.68
2023-03-19T02:17:13.940Z,12.59
2023-03-19T02:19:48.430Z,12.64
2023-03-19T02:22:18.718Z,12.71
2023-03-19T02:24:52.176Z,12.72
2023-03-19T02:27:23.346Z,12.69
2023-03-19T02:29:52.382Z,12.72
2023-03-19T02:32:22.022Z,12.75
2023-03-19T02:34:49.960Z,12.78
2023-03-19T02:37:20.000Z,12.58
2023-03-19T02:39:51.491Z,12.53
2023-03-19T02:42:20.931Z,12.61
2023-03-19T02:44:50.558Z,12.72
2023-03-19T02:47:18.737Z,12.71
2023-03-19T02:49:46.702Z,12.69
2023-03-19T02:52:14.414Z,12.61
2023-03-19T02:54:42.338Z,12.56
2023-03-19T02:57:10.352Z,12.41
2023-03-19T02:59:39.122Z,12.19
2023-03-19T03:02:10.216Z,12.18
2023-03-19T03:04:38.569Z,12.18
2023-03-19T03:07:07.664Z,12.24
2023-03-19T03:09:35.631Z,12.19
2023-03-19T03:12:06.146Z,12.11
2023-03-19T03:14:35.240Z,12.09
2023-03-19T03:17:03.542Z,12.10
2023-03-19T03:19:32.685Z,12.10
2023-03-19T03:22:01.578Z,12.22
2023-03-19T03:24:30.260Z,12.25
2023-03-19T03:26:58.781Z,12.24
2023-03-19T03:29:26.766Z,12.11
2023-03-19T03:31:54.522Z,12.09
2023-03-19T03:34:22.573Z,11.79
2023-03-19T03:36:52.506Z,11.63
2023-03-19T03:39:20.480Z,11.59
2023-03-19T03:41:48.544Z,11.54
2023-03-19T03:44:16.356Z,11.59
2023-03-19T03:46:45.417Z,11.70
2023-03-19T03:49:13.583Z,11.70
2023-03-19T03:51:42.696Z,11.67
2023-03-19T03:54:12.893Z,11.73
2023-03-19T03:56:41.281Z,11.76
2023-03-19T03:59:09.680Z,11.88
2023-03-19T04:01:37.891Z,12.02
2023-03-19T04:04:06.212Z,12.07
2023-03-19T04:06:34.930Z,12.14
2023-03-19T04:09:17.320Z,12.09
2023-03-19T04:11:45.664Z,12.13
2023-03-19T04:14:13.923Z,12.04
2023-03-19T04:16:43.405Z,11.99
2023-03-19T04:19:12.295Z,12.01
2023-03-19T04:21:40.070Z,12.05
2023-03-19T04:24:10.031Z,12.05
2023-03-19T04:26:39.378Z,12.04
2023-03-19T04:29:08.697Z,11.96
2023-03-19T04:31:37.258Z,11.63
2023-03-19T04:34:05.966Z,11.54
2023-03-19T04:36:33.719Z,11.51
2023-03-19T04:39:01.965Z,11.36
2023-03-19T04:41:29.808Z,11.44
2023-03-19T04:44:11.724Z,11.51
2023-03-19T04:46:41.231Z,11.50
2023-03-19T04:49:09.232Z,11.50
2023-03-19T04:51:37.126Z,11.44
2023-03-19T04:54:05.345Z,11.53
2023-03-19T04:56:34.616Z,11.65
2023-03-19T04:59:03.085Z,11.68
2023-03-19T05:01:33.585Z,11.65
2023-03-19T05:04:06.272Z,11.58
2023-03-19T05:06:36.598Z,10.83
2023-03-19T05:09:05.048Z,10.06
2023-03-19T05:11:33.027Z,9.71
2023-03-19T05:14:07.228Z,9.86
2023-03-19T05:17:00.477Z,10.21
2023-03-19T05:19:36.839Z,10.37
2023-03-19T05:22:05.222Z,10.44
2023-03-19T05:24:33.332Z,10.68
2023-03-19T05:27:02.438Z,10.84
2023-03-19T05:29:44.621Z,10.96
2023-03-19T05:32:36.577Z,10.95
2023-03-19T05:35:07.477Z,11.01
2023-03-19T05:37:37.406Z,11.21
2023-03-19T05:40:05.369Z,11.27
2023-03-19T05:42:33.686Z,11.10
2023-03-19T05:45:02.416Z,10.85
2023-03-19T05:47:40.457Z,10.44
2023-03-19T05:50:09.144Z,10.06
2023-03-19T05:52:37.683Z,10.06
2023-03-19T05:55:05.838Z,10.04
2023-03-19T05:57:46.173Z,10.19
2023-03-19T06:00:21.187Z,10.37
2023-03-19T06:02:51.445Z,10.67
2023-03-19T06:05:57.946Z,10.98
2023-03-19T06:08:36.406Z,11.18
2023-03-19T06:11:24.636Z,11.29
2023-03-19T06:14:14.525Z,11.20
2023-03-19T06:16:47.016Z,11.22
2023-03-19T06:19:16.047Z,11.38
2023-03-19T06:21:43.955Z,11.48
2023-03-19T06:24:11.946Z,11.42
2023-03-19T06:26:39.875Z,11.61
2023-03-19T06:29:14.807Z,11.67
2023-03-19T06:31:45.621Z,11.98
2023-03-19T06:34:33.323Z,12.28
2023-03-19T06:37:02.189Z,12.49
2023-03-19T06:39:29.981Z,12.64
2023-03-19T06:41:57.998Z,12.35
2023-03-19T06:44:27.780Z,12.40
2023-03-19T06:46:55.824Z,12.58
2023-03-19T06:49:24.238Z,12.87
2023-03-19T06:51:53.161Z,13.18
2023-03-19T06:54:20.717Z,13.50
2023-03-19T06:56:49.028Z,13.85
2023-03-19T06:59:17.292Z,13.93
2023-03-19T07:01:45.185Z,14.11
2023-03-19T07:04:12.946Z,14.22
2023-03-19T07:06:41.391Z,14.25
2023-03-19T07:09:10.361Z,14.52
2023-03-19T07:11:38.150Z,14.75
2023-03-19T07:14:06.348Z,14.85
2023-03-19T07:16:34.194Z,15.10
2023-03-19T07:19:01.936Z,15.56
2023-03-19T07:21:30.145Z,15.73
2023-03-19T07:23:57.840Z,15.81
2023-03-19T07:26:27.621Z,16.00
2023-03-19T07:28:55.532Z,16.38
2023-03-19T07:31:23.343Z,16.66
2023-03-19T07:33:51.414Z,17.02
2023-03-19T07:36:19.275Z,17.14
2023-03-19T07:38:46.903Z,17.17
2023-03-19T07:41:14.549Z,17.47
2023-03-19T07:43:43.692Z,17.35
2023-03-19T07:46:12.732Z,17.22
2023-03-19T07:48:40.764Z,17.02
2023-03-19T07:51:08.678Z,16.76
2023-03-19T07:53:36.268Z,16.66
2023-03-19T07:56:03.961Z,16.34
2023-03-19T07:58:31.727Z,16.79
2023-03-19T08:01:00.817Z,17.06
2023-03-19T08:03:29.328Z,16.97
2023-03-19T08:05:56.802Z,16.58
2023-03-19T08:08:24.507Z,16.20
2023-03-19T08:10:54.162Z,16.33
2023-03-19T08:13:22.638Z,16.49
2023-03-19T08:15:50.601Z,16.17
2023-03-19T08:18:19.769Z,16.51
2023-03-19T08:20:48.084Z,17.07
2023-03-19T08:23:16.232Z,17.25
2023-03-19T08:25:44.161Z,17.70
2023-03-19T08:28:12.069Z,18.16
2023-03-19T08:30:40.293Z,17.95
2023-03-19T08:33:08.912Z,17.79
2023-03-19T08:35:38.575Z,17.98
2023-03-19T08:38:07.100Z,18.03
2023-03-19T08:40:34.838Z,18.40
2023-03-19T08:43:04.211Z,18.64
2023-03-19T08:45:31.872Z,18.94
2023-03-19T08:47:59.642Z,18.62
2023-03-19T08:50:27.600Z,18.45
2023-03-19T08:52:57.600Z,18.51
2023-03-19T08:55:25.704Z,18.13
2023-03-19T08:57:53.639Z,17.90
2023-03-19T09:00:21.573Z,17.80
2023-03-19T09:02:50.226Z,17.82
2023-03-19T09:05:20.393Z,18.05
2023-03-19T09:07:48.332Z,18.18
2023-03-19T09:10:17.473Z,18.84
2023-03-19T09:12:46.244Z,19.06
2023-03-19T09:15:15.870Z,19.58
2023-03-19T09:17:46.142Z,20.26
2023-03-19T09:20:14.296Z,20.13
2023-03-19T09:22:42.215Z,20.96
2023-03-19T09:25:10.559Z,21.70
2023-03-19T09:27:39.875Z,21.27
2023-03-19T09:30:10.041Z,21.66
2023-03-19T09:32:38.203Z,21.73
2023-03-19T09:35:06.548Z,21.76
2023-03-19T09:37:34.480Z,21.69
2023-03-19T09:40:02.323Z,21.93
2023-03-19T09:42:42.166Z,22.18
2023-03-19T09:45:13.784Z,23.04
2023-03-19T09:47:43.535Z,24.14
2023-03-19T09:50:14.222Z,24.48
2023-03-19T09:52:44.098Z,24.31
2023-03-19T09:55:15.671Z,22.95
2023-03-19T09:57:43.448Z,22.36
2023-03-19T10:00:22.658Z,21.76
2023-03-19T10:02:55.073Z,21.41
2023-03-19T10:05:27.263Z,21.06
2023-03-19T10:08:04.472Z,20.82
2023-03-19T10:10:38.284Z,20.85
2023-03-19T10:13:13.254Z,21.64
2023-03-19T10:15:44.304Z,21.84
2023-03-19T10:18:13.607Z,21.84
2023-03-19T10:20:47.576Z,21.78
2023-03-19T10:23:25.138Z,21.14
2023-03-19T10:25:55.313Z,21.08
2023-03-19T10:28:23.476Z,21.64
2023-03-19T10:30:58.237Z,22.02
2023-03-19T10:33:27.360Z,21.79
2023-03-19T10:35:58.681Z,21.65
2023-03-19T10:38:27.410Z,21.73
2023-03-19T10:41:05.293Z,22.17
2023-03-19T10:43:34.897Z,23.57
2023-03-19T10:46:04.156Z,25.00
2023-03-19T10:48:32.632Z,27.50
2023-03-19T10:51:02.297Z,26.78
2023-03-19T10:53:32.550Z,25.03
2023-03-19T10:56:02.213Z,23.91
2023-03-19T10:58:31.425Z,22.75
2023-03-19T11:01:04.303Z,21.11
2023-03-19T11:03:34.376Z,21.72
2023-03-19T11:06:06.635Z,22.33
2023-03-19T11:08:36.506Z,22.30
2023-03-19T11:11:05.546Z,23.55
2023-03-19T11:13:36.102Z,24.26
2023-03-19T11:16:06.410Z,25.59
2023-03-19T11:18:40.526Z,24.05
2023-03-19T11:21:10.171Z,22.61
2023-03-19T11:23:43.715Z,22.22
2023-03-19T11:26:21.012Z,22.01
2023-03-19T11:28:52.301Z,22.48
2023-03-19T11:31:22.681Z,21.14
2023-03-19T11:34:12.873Z,19.97
2023-03-19T11:36:47.153Z,20.76
2023-03-19T11:39:26.714Z,21.99
2023-03-19T11:42:00.795Z,19.49
2023-03-19T11:44:34.091Z,18.94
2023-03-19T11:47:14.878Z,19.95
2023-03-19T11:50:03.432Z,23.35
2023-03-19T11:52:38.821Z,20.36
2023-03-19T11:55:19.203Z,17.80
2023-03-19T11:57:59.119Z,17.37
2023-03-19T12:00:31.593Z,19.34
2023-03-19T12:03:14.967Z,18.29
2023-03-19T12:05:48.104Z,18.99
2023-03-19T12:08:31.101Z,19.49
2023-03-19T12:11:11.311Z,18.54
2023-03-19T12:13:46.716Z,19.46
2023-03-19T12:16:19.374Z,19.68
2023-03-19T12:18:59.876Z,20.08
2023-03-19T12:21:36.255Z,18.13
2023-03-19T12:24:05.454Z,17.49
2023-03-19T12:26:40.548Z,17.95
2023-03-19T12:29:16.640Z,17.95
2023-03-19T12:31:51.279Z,17.37
2023-03-19T12:34:22.215Z,17.03
2023-03-19T12:36:54.125Z,17.85
2023-03-19T12:39:25.364Z,18.73
2023-03-19T12:41:56.462Z,17.68
2023-03-19T12:44:27.489Z,18.49
2023-03-19T12:46:59.389Z,19.76
2023-03-19T12:49:31.658Z,20.56
2023-03-19T12:52:07.721Z,19.45
2023-03-19T12:54:37.531Z,19.33
2023-03-19T12:57:08.666Z,18.16
2023-03-19T12:59:39.922Z,17.89
2023-03-19T13:02:12.991Z,16.58
2023-03-19T13:04:41.515Z,16.99
2023-03-19T13:07:14.606Z,17.32
2023-03-19T13:09:45.112Z,17.77
2023-03-19T13:12:14.092Z,17.28
2023-03-19T13:14:47.518Z,18.11
2023-03-19T13:17:22.316Z,17.99
2023-03-19T13:19:54.106Z,16.03
2023-03-19T13:22:26.729Z,16.01
2023-03-19T13:24:55.624Z,15.73
2023-03-19T13:27:25.788Z,15.42
2023-03-19T13:30:00.849Z,15.24
2023-03-19T13:32:31.688Z,15.51
2023-03-19T13:35:10.940Z,14.98
2023-03-19T13:37:42.651Z,14.81
2023-03-19T13:40:38.454Z,14.99
2023-03-19T13:43:28.118Z,14.94
2023-03-19T13:46:04.645Z,14.62
2023-03-19T13:48:36.785Z,14.62
2023-03-19T13:51:06.088Z,14.35
2023-03-19T13:53:40.098Z,13.82
2023-03-19T13:56:26.289Z,13.27
2023-03-19T13:59:11.574Z,13.25
2023-03-19T14:01:40.722Z,13.03
2023-03-19T14:04:18.690Z,12.94
2023-03-19T14:06:48.438Z,12.95
2023-03-19T14:09:34.663Z,13.06
2023-03-19T14:12:21.836Z,12.82
2023-03-19T14:14:51.046Z,12.58
2023-03-19T14:17:22.520Z,12.30
2023-03-19T14:19:50.730Z,12.19
2023-03-19T14:22:21.581Z,12.34
2023-03-19T14:25:05.959Z,12.44
2023-03-19T14:27:37.061Z,12.68
2023-03-19T14:30:09.825Z,12.98
2023-03-19T14:32:41.196Z,13.37
2023-03-19T14:35:13.342Z,13.47
2023-03-19T14:37:45.330Z,13.76
2023-03-19T14:40:14.365Z,14.23
2023-03-19T14:42:52.395Z,14.45
2023-03-19T14:45:47.534Z,14.97
2023-03-19T14:48:26.088Z,15.31
2023-03-19T14:51:17.661Z,15.68
2023-03-19T14:53:47.621Z,16.27
2023-03-19T14:56:16.723Z,16.72
2023-03-19T14:58:53.736Z,17.56
2023-03-19T15:01:22.450Z,18.74
2023-03-19T15:03:54.724Z,19.43
2023-03-19T15:06:23.135Z,19.95
2023-03-19T15:08:51.849Z,20.94
2023-03-19T15:11:35.565Z,22.86
2023-03-19T15:14:17.678Z,24.33
2023-03-19T15:16:58.938Z,24.65
2023-03-19T15:19:28.653Z,25.57
2023-03-19T15:22:04.761Z,27.66
2023-03-19T15:24:32.491Z,29.49
2023-03-19T15:27:00.145Z,30.94
2023-03-19T15:29:37.768Z,31.68
2023-03-19T15:32:10.314Z,30.14
2023-03-19T15:34:39.448Z,30.76
2023-03-19T15:37:10.939Z,31.17
2023-03-19T15:39:41.707Z,29.57
2023-03-19T15:42:09.865Z,26.53
2023-03-19T15:44:42.185Z,28.04
2023-03-19T15:47:12.592Z,29.07
2023-03-19T15:49:43.713Z,29.11
2023-03-19T15:52:13.674Z,30.33
2023-03-19T15:54:41.616Z,30.78
2023-03-19T15:57:10.986Z,29.00
2023-03-19T15:59:41.229Z,25.74
2023-03-19T16:02:16.164Z,26.38
2023-03-19T16:05:14.076Z,26.43
2023-03-19T16:07:41.518Z,24.33
2023-03-19T16:10:39.109Z,26.21
2023-03-19T16:13:22.437Z,25.64
2023-03-19T16:15:57.122Z,23.10
2023-03-19T16:18:26.026Z,23.95
2023-03-19T16:21:06.194Z,21.62
2023-03-19T16:23:34.875Z,23.13
2023-03-19T16:26:08.490Z,22.11
2023-03-19T16:28:38.224Z,23.99
2023-03-19T16:31:16.857Z,23.55
2023-03-19T16:33:44.753Z,19.97
2023-03-19T16:36:13.863Z,20.96
2023-03-19T16:38:44.204Z,21.99
2023-03-19T16:41:27.714Z,22.94
2023-03-19T16:43:55.647Z,23.49
2023-03-19T16:46:26.244Z,23.52
2023-03-19T16:48:54.671Z,22.27
2023-03-19T16:51:22.685Z,21.09
2023-03-19T16:53:50.427Z,19.78
2023-03-19T16:56:19.401Z,19.32
2023-03-19T16:58:48.290Z,18.91
2023-03-19T17:01:17.993Z,18.62
2023-03-19T17:03:49.096Z,19.10
2023-03-19T17:06:16.874Z,19.24
2023-03-19T17:08:44.675Z,18.21
2023-03-19T17:11:17.262Z,17.28
2023-03-19T17:13:45.492Z,16.64
2023-03-19T17:16:18.386Z,16.19
2023-03-19T17:18:48.425Z,15.71
2023-03-19T17:21:18.102Z,15.35
2023-03-19T17:23:46.551Z,15.06
2023-03-19T17:26:15.900Z,14.88
2023-03-19T17:28:43.934Z,14.85
2023-03-19T17:31:29.898Z,14.70
2023-03-19T17:34:01.540Z,14.43
2023-03-19T17:36:29.304Z,14.23
2023-03-19T17:38:57.335Z,14.17
2023-03-19T17:41:25.099Z,14.05
2023-03-19T17:43:52.784Z,13.96
2023-03-19T17:46:21.971Z,13.92
2023-03-19T17:48:50.865Z,13.75
2023-03-19T17:51:20.100Z,13.57
2023-03-19T17:53:50.013Z,13.44
2023-03-19T17:56:18.484Z,13.31
2023-03-19T17:58:48.604Z,13.11
2023-03-19T18:01:18.948Z,12.94
2023-03-19T18:03:46.842Z,12.86
2023-03-19T18:06:17.217Z,12.81
2023-03-19T18:08:46.641Z,12.82
2023-03-19T18:11:14.728Z,12.88
2023-03-19T18:13:43.230Z,12.95
2023-03-19T18:16:16.081Z,12.96
2023-03-19T18:18:44.014Z,13.01
2023-03-19T18:21:14.235Z,13.12
2023-03-19T18:23:42.346Z,13.21
2023-03-19T18:26:12.394Z,13.36
2023-03-19T18:28:40.285Z,13.40
2023-03-19T18:31:13.029Z,13.29
2023-03-19T18:33:41.400Z,13.26
2023-03-19T18:36:09.688Z,13.20
2023-03-19T18:38:37.934Z,13.09
2023-03-19T18:41:06.420Z,12.94
2023-03-19T18:43:35.829Z,12.85
2023-03-19T18:46:03.896Z,12.78
2023-03-19T18:48:33.377Z,12.73
2023-03-19T18:51:01.589Z,12.97
2023-03-19T18:53:30.202Z,13.21
2023-03-19T18:55:58.434Z,13.39
2023-03-19T18:58:29.067Z,13.44
2023-03-19T19:01:01.722Z,13.37
2023-03-19T19:03:33.550Z,13.46
2023-03-19T19:06:01.731Z,13.51
2023-03-19T19:08:32.633Z,13.47
2023-03-19T19:11:03.812Z,13.45
2023-03-19T19:13:46.317Z,13.34
2023-03-19T19:16:27.750Z,12.97
2023-03-19T19:18:55.964Z,12.72
2023-03-19T19:21:23.957Z,12.52
2023-03-19T19:23:51.967Z,12.43
2023-03-19T19:26:23.123Z,12.42
2023-03-19T19:28:51.834Z,12.34
2023-03-19T19:31:24.384Z,12.28
2023-03-19T19:33:54.086Z,12.13
2023-03-19T19:36:23.485Z,11.95
2023-03-19T19:38:52.272Z,11.78
2023-03-19T19:41:22.475Z,11.62
2023-03-19T19:43:51.322Z,11.55
2023-03-19T19:46:20.150Z,11.54
2023-03-19T19:48:48.201Z,11.58
2023-03-19T19:51:21.309Z,11.44
2023-03-19T19:53:50.065Z,11.36
2023-03-19T19:56:19.253Z,11.27
2023-03-19T19:58:47.379Z,11.30
2023-03-19T20:01:16.895Z,11.23
2023-03-19T20:03:46.193Z,11.19
2023-03-19T20:06:14.914Z,11.29
2023-03-19T20:08:44.653Z,11.38
2023-03-19T20:11:15.641Z,11.45
2023-03-19T20:13:49.104Z,11.60
2023-03-19T20:16:18.392Z,11.69
2023-03-19T20:18:47.561Z,11.66
2023-03-19T20:21:16.846Z,11.52
2023-03-19T20:23:48.068Z,11.42
2023-03-19T20:26:17.011Z,11.39
2023-03-19T20:28:45.802Z,11.29
2023-03-19T20:31:18.152Z,11.16
2023-03-19T20:33:46.302Z,11.04
2023-03-19T20:36:15.360Z,11.00
2023-03-19T20:38:44.013Z,10.81
2023-03-19T20:41:21.663Z,10.70
2023-03-19T20:43:50.504Z,10.59
2023-03-19T20:46:20.550Z,10.36
2023-03-19T20:48:49.060Z,10.16
2023-03-19T20:51:19.806Z,9.95
2023-03-19T20:53:48.484Z,9.94
2023-03-19T20:56:18.726Z,10.14
2023-03-19T20:58:46.889Z,10.21
2023-03-19T21:01:15.712Z,10.22
2023-03-19T21:03:43.540Z,10.29
2023-03-19T21:06:16.452Z,10.27
2023-03-19T21:08:47.706Z,10.23
2023-03-19T21:11:19.021Z,9.99
2023-03-19T21:13:48.138Z,9.98
2023-03-19T21:16:18.721Z,10.18
2023-03-19T21:18:47.100Z,10.26
2023-03-19T21:21:15.683Z,10.28
2023-03-19T21:23:45.327Z,10.42
2023-03-19T21:26:19.516Z,10.56
2023-03-19T21:28:50.040Z,10.56
2023-03-19T21:31:20.864Z,10.53
2023-03-19T21:33:49.968Z,10.63
2023-03-19T21:36:18.278Z,10.63
2023-03-19T21:38:46.214Z,10.65
2023-03-19T21:41:19.931Z,10.87
2023-03-19T21:43:52.539Z,11.14
2023-03-19T21:46:24.825Z,11.37
2023-03-19T21:48:54.015Z,11.38
2023-03-19T21:51:22.559Z,11.57
2023-03-19T21:53:51.718Z,11.59
2023-03-19T21:56:21.555Z,11.67
2023-03-19T21:58:53.170Z,11.74
2023-03-19T22:01:21.995Z,11.67
2023-03-19T22:03:49.591Z,11.70
2023-03-19T22:06:18.034Z,11.74
2023-03-19T22:08:48.001Z,11.85
2023-03-19T22:11:18.045Z,11.95
2023-03-19T22:13:45.922Z,11.62
2023-03-19T22:16:19.621Z,11.46
2023-03-19T22:18:47.998Z,11.46
2023-03-19T22:21:16.596Z,11.47
2023-03-19T22:23:44.636Z,11.40
2023-03-19T22:26:25.450Z,11.47
2023-03-19T22:28:53.301Z,11.51
2023-03-19T22:31:22.246Z,11.52
2023-03-19T22:33:57.400Z,11.37
2023-03-19T22:36:25.007Z,11.29
2023-03-19T22:38:52.617Z,11.19
2023-03-19T22:41:24.812Z,11.19
2023-03-19T22:43:52.495Z,11.20
2023-03-19T22:46:20.914Z,11.13
2023-03-19T22:48:50.965Z,10.97
2023-03-19T22:51:19.613Z,10.83
2023-03-19T22:53:47.247Z,10.74
2023-03-19T22:56:16.187Z,10.79
2023-03-19T22:58:46.882Z,10.81
2023-03-19T23:01:29.001Z,10.70
2023-03-19T23:03:58.392Z,10.79
2023-03-19T23:06:30.556Z,10.83
2023-03-19T23:08:58.666Z,10.89
2023-03-19T23:11:27.419Z,11.08
2023-03-19T23:13:56.768Z,11.36
2023-03-19T23:16:26.665Z,11.46
2023-03-19T23:21:23.413Z,11.67
2023-03-19T23:23:52.343Z,11.63
2023-03-19T23:26:25.608Z,11.56
2023-03-19T23:28:53.506Z,11.47
2023-03-19T23:31:21.380Z,11.32
2023-03-19T23:33:49.493Z,11.23
2023-03-19T23:36:17.682Z,11.25
2023-03-19T23:38:47.649Z,11.32
2023-03-19T23:41:21.117Z,11.35
2023-03-19T23:43:49.249Z,11.26
2023-03-19T23:46:17.321Z,11.24
2023-03-19T23:48:45.015Z,11.15
2023-03-19T23:51:14.141Z,11.17
2023-03-19T23:53:42.475Z,11.18
2023-03-19T23:56:18.120Z,11.18
2023-03-19T23:58:47.475Z,11.17
